createdAt,value
2022-09-05T00:02:03.395Z,2.50
2022-09-05T00:05:31.355Z,2.20
2022-09-05T00:08:33.098Z,1.80
2022-09-05T00:11:43.891Z,2.10
2022-09-05T00:15:16.018Z,1.10
2022-09-05T00:20:40.685Z,1.10
2022-09-05T00:24:32.906Z,1.70
2022-09-05T00:25:31.714Z,2.20
2022-09-05T00:28:28.619Z,1.70
2022-09-05T00:31:56.140Z,1.10
2022-09-05T00:35:03.105Z,1.30
2022-09-05T00:37:51.125Z,1.30
2022-09-05T00:41:02.584Z,2.20
2022-09-05T00:43:51.208Z,2.50
2022-09-05T00:46:47.885Z,2.90
2022-09-05T00:49:44.355Z,2.90
2022-09-05T00:52:38.465Z,2.10
2022-09-05T00:56:07.206Z,1.80
2022-09-05T00:59:30.670Z,2.70
2022-09-05T01:02:49.806Z,2.30
2022-09-05T01:05:43.979Z,1.70
2022-09-05T01:09:07.314Z,1.50
2022-09-05T01:11:57.025Z,1.70
2022-09-05T01:15:15.000Z,1.70
2022-09-05T01:18:18.810Z,1.30
2022-09-05T01:21:26.405Z,1.40
2022-09-05T01:24:53.715Z,1.50
2022-09-05T01:29:13.165Z,1.60
2022-09-05T01:31:15.818Z,1.80
2022-09-05T01:34:29.647Z,1.80
2022-09-05T01:38:03.426Z,2.00
2022-09-05T01:41:18.356Z,1.20
2022-09-05T01:44:27.274Z,3.50
2022-09-05T01:47:37.054Z,1.80
2022-09-05T01:50:46.122Z,4.00
2022-09-05T01:54:24.401Z,5.40
2022-09-05T01:57:23.355Z,1.60
2022-09-05T02:00:22.790Z,1.50
2022-09-05T02:03:35.386Z,2.20
2022-09-05T02:06:50.613Z,3.70
2022-09-05T02:10:13.688Z,2.80
2022-09-05T02:13:30.458Z,1.30
2022-09-05T02:16:17.254Z,2.00
2022-09-05T02:19:09.308Z,3.30
2022-09-05T02:22:26.362Z,3.10
2022-09-05T02:26:03.000Z,2.30
2022-09-05T02:28:50.660Z,2.30
2022-09-05T02:32:06.455Z,2.20
2022-09-05T02:35:01.865Z,1.30
2022-09-05T02:40:56.008Z,2.10
2022-09-05T02:45:12.353Z,2.30
2022-09-05T02:45:20.203Z,2.40
2022-09-05T02:48:04.136Z,1.80
2022-09-05T02:56:36.251Z,2.30
2022-09-05T02:58:04.375Z,3.10
2022-09-05T02:58:16.244Z,1.50
2022-09-05T03:01:27.280Z,2.10
2022-09-05T03:04:35.055Z,4.60
2022-09-05T03:07:55.076Z,3.60
2022-09-05T03:10:54.675Z,3.70
2022-09-05T03:14:00.296Z,5.30
2022-09-05T03:17:21.211Z,5.10
2022-09-05T03:21:08.955Z,4.70
2022-09-05T03:24:12.364Z,4.10
2022-09-05T03:27:10.221Z,1.60
2022-09-05T03:30:17.485Z,3.20
2022-09-05T03:33:24.370Z,3.00
2022-09-05T03:36:55.568Z,5.30
2022-09-05T03:40:15.168Z,1.90
2022-09-05T03:43:26.241Z,4.70
2022-09-05T03:47:02.696Z,2.30
2022-09-05T03:57:06.020Z,3.70
2022-09-05T03:57:23.097Z,1.50
2022-09-05T03:57:32.363Z,3.30
2022-09-05T04:00:24.079Z,3.10
2022-09-05T04:08:07.635Z,2.60
2022-09-05T04:08:18.781Z,1.90
2022-09-05T04:10:02.763Z,2.30
2022-09-05T04:12:57.931Z,4.30
2022-09-05T04:15:54.739Z,3.80
2022-09-05T04:18:51.780Z,3.60
2022-09-05T04:21:54.855Z,2.30
2022-09-05T04:24:46.752Z,2.10
2022-09-05T04:27:38.765Z,3.50
2022-09-05T04:30:45.031Z,2.50
2022-09-05T04:33:46.703Z,4.10
2022-09-05T04:36:36.584Z,4.70
2022-09-05T04:39:22.297Z,4.00
2022-09-05T04:42:17.112Z,4.00
2022-09-05T04:45:12.935Z,2.10
2022-09-05T04:48:07.868Z,4.90
2022-09-05T04:51:02.105Z,3.60
2022-09-05T04:54:09.012Z,3.20
2022-09-05T04:57:15.965Z,1.60
2022-09-05T05:05:59.435Z,3.10
2022-09-05T05:06:17.933Z,3.90
2022-09-05T05:07:07.761Z,2.60
2022-09-05T05:10:25.585Z,4.00
2022-09-05T05:17:56.692Z,2.60
2022-09-05T05:18:13.107Z,3.90
2022-09-05T05:20:40.352Z,3.20
2022-09-05T05:23:07.578Z,8.40
2022-09-05T05:26:02.650Z,5.80
2022-09-05T05:29:00.330Z,3.70
2022-09-05T05:31:56.324Z,3.40
2022-09-05T05:34:46.405Z,3.30
2022-09-05T05:37:42.789Z,2.90
2022-09-05T05:40:42.356Z,5.90
2022-09-05T05:43:46.672Z,3.20
2022-09-05T05:46:38.477Z,2.80
2022-09-05T05:49:52.451Z,3.40
2022-09-05T05:52:50.817Z,10.80
2022-09-05T05:56:11.782Z,2.20
2022-09-05T05:59:16.390Z,3.60
2022-09-05T06:02:15.964Z,2.90
2022-09-05T06:05:27.735Z,3.70
2022-09-05T06:10:33.778Z,5.80
2022-09-05T06:14:57.997Z,3.10
2022-09-05T06:16:18.565Z,2.20
2022-09-05T06:19:08.591Z,2.00
2022-09-05T06:22:31.390Z,1.10
2022-09-05T06:25:54.713Z,3.00
2022-09-05T06:28:54.676Z,2.30
2022-09-05T06:32:12.605Z,1.00
2022-09-05T06:35:17.120Z,3.40
2022-09-05T06:38:24.901Z,4.00
2022-09-05T06:41:33.985Z,4.10
2022-09-05T06:45:27.836Z,3.60
2022-09-05T06:48:32.116Z,2.00
2022-09-05T06:51:49.145Z,1.90
2022-09-05T06:55:14.922Z,1.60
2022-09-05T06:58:22.747Z,1.70
2022-09-05T07:01:11.700Z,1.20
2022-09-05T07:05:23.347Z,3.00
2022-09-05T07:07:46.795Z,0.90
2022-09-05T07:10:39.973Z,2.20
2022-09-05T07:13:25.950Z,0.90
2022-09-05T07:16:42.051Z,2.60
2022-09-05T07:19:54.899Z,1.70
2022-09-05T07:23:40.929Z,1.30
2022-09-05T07:26:42.066Z,3.10
2022-09-05T07:29:28.153Z,1.80
2022-09-05T07:32:23.786Z,2.90
2022-09-05T07:35:31.259Z,2.80
2022-09-05T07:38:55.280Z,1.40
2022-09-05T07:41:55.685Z,0.70
2022-09-05T07:45:05.878Z,2.00
2022-09-05T07:48:15.695Z,3.90
2022-09-05T07:56:49.149Z,0.80
2022-09-05T07:56:54.262Z,1.10
2022-09-05T07:57:50.869Z,1.50
2022-09-05T08:00:37.682Z,0.50
2022-09-05T08:03:29.905Z,1.00
2022-09-05T08:07:34.347Z,1.40
2022-09-05T08:10:05.920Z,1.70
2022-09-05T08:13:24.352Z,2.00
2022-09-05T08:16:19.518Z,1.50
2022-09-05T08:19:28.459Z,1.90
2022-09-05T08:22:21.919Z,0.90
2022-09-05T08:25:35.000Z,1.70
2022-09-05T08:29:06.062Z,1.10
2022-09-05T08:32:01.077Z,0.80
2022-09-05T08:35:09.576Z,0.60
2022-09-05T08:37:58.215Z,4.70
2022-09-05T08:40:59.470Z,0.40
2022-09-05T08:46:17.035Z,1.60
2022-09-05T08:47:16.724Z,0.50
2022-09-05T08:50:28.625Z,0.80
2022-09-05T08:53:46.482Z,1.20
2022-09-05T08:56:47.936Z,0.70
2022-09-05T09:00:20.399Z,0.70
2022-09-05T09:03:20.503Z,0.50
2022-09-05T09:06:45.855Z,0.80
2022-09-05T09:10:13.897Z,1.10
2022-09-05T09:13:36.849Z,0.60
2022-09-05T09:16:33.858Z,0.60
2022-09-05T09:19:42.261Z,1.20
2022-09-05T09:22:50.631Z,2.70
2022-09-05T09:25:47.285Z,1.00
2022-09-05T09:29:07.170Z,1.80
2022-09-05T09:32:15.169Z,1.30
2022-09-05T09:35:07.129Z,0.40
2022-09-05T09:38:16.371Z,1.10
2022-09-05T09:41:29.295Z,5.40
2022-09-05T09:44:15.805Z,0.40
2022-09-05T09:47:09.440Z,0.70
2022-09-05T09:50:32.648Z,0.60
2022-09-05T09:53:37.211Z,0.30
2022-09-05T09:56:50.637Z,2.00
2022-09-05T10:00:10.342Z,0.20
2022-09-05T10:08:26.957Z,0.60
2022-09-05T10:10:34.107Z,0.80
2022-09-05T10:11:09.534Z,0.70
2022-09-05T10:13:59.594Z,0.70
2022-09-05T10:17:07.628Z,1.00
2022-09-05T10:20:15.295Z,0.60
2022-09-05T10:23:44.863Z,0.50
2022-09-05T10:27:00.790Z,3.30
2022-09-05T10:30:08.245Z,1.80
2022-09-05T10:35:19.950Z,3.40
2022-09-05T10:37:06.572Z,3.50
2022-09-05T10:39:52.780Z,1.40
2022-09-05T10:43:03.582Z,1.30
2022-09-05T10:46:06.232Z,1.10
2022-09-05T10:48:55.479Z,0.30
2022-09-05T10:52:13.138Z,3.00
2022-09-05T10:55:26.405Z,1.40
2022-09-05T11:02:11.558Z,1.10
2022-09-05T11:02:29.118Z,2.40
2022-09-05T11:05:19.484Z,1.40
2022-09-05T11:08:15.150Z,2.10
2022-09-05T11:11:26.002Z,2.00
2022-09-05T11:15:05.448Z,1.00
2022-09-05T11:18:11.328Z,2.00
2022-09-05T11:21:41.791Z,1.90
2022-09-05T11:24:27.707Z,1.30
2022-09-05T11:27:40.641Z,1.90
2022-09-05T11:30:35.557Z,1.90
2022-09-05T11:39:50.663Z,4.50
2022-09-05T11:39:59.729Z,3.10
2022-09-05T11:40:28.384Z,1.40
2022-09-05T11:44:07.144Z,1.20
2022-09-05T11:47:44.914Z,3.60
2022-09-05T11:50:30.859Z,3.80
2022-09-05T11:53:22.258Z,0.80
2022-09-05T11:56:13.976Z,1.40
2022-09-05T11:59:33.600Z,0.50
2022-09-05T12:02:39.412Z,1.30
2022-09-05T12:05:58.813Z,1.90
2022-09-05T12:08:55.004Z,1.40
2022-09-05T12:12:38.996Z,1.20
2022-09-05T12:15:34.546Z,0.30
2022-09-05T12:18:40.605Z,1.80
2022-09-05T12:21:50.865Z,0.60
2022-09-05T12:25:27.638Z,1.00
2022-09-05T12:29:33.517Z,1.10
2022-09-05T12:33:52.365Z,1.80
2022-09-05T12:36:06.665Z,2.30
2022-09-05T12:41:42.381Z,3.70
2022-09-05T12:41:44.588Z,2.30
2022-09-05T12:44:44.240Z,1.30
2022-09-05T12:47:31.527Z,0.70
2022-09-05T12:50:19.693Z,1.20
2022-09-05T12:53:11.195Z,1.70
2022-09-05T12:59:33.466Z,0.60
2022-09-05T13:03:00.951Z,1.80
2022-09-05T13:03:28.028Z,0.40
2022-09-05T13:06:26.199Z,0.50
2022-09-05T13:10:51.286Z,6.30
2022-09-05T13:14:57.076Z,1.60
2022-09-05T13:16:13.435Z,2.00
2022-09-05T13:19:31.386Z,1.50
2022-09-05T13:22:21.578Z,1.40
2022-09-05T13:25:16.849Z,4.30
2022-09-05T13:28:09.378Z,2.00
2022-09-05T13:36:20.820Z,3.20
2022-09-05T13:38:07.303Z,5.60
2022-09-05T13:38:30.571Z,1.80
2022-09-05T13:40:41.744Z,0.80
2022-09-05T13:43:39.695Z,2.60
2022-09-05T13:46:57.421Z,1.60
2022-09-05T13:50:13.844Z,0.80
2022-09-05T13:53:36.872Z,2.00
2022-09-05T13:56:28.350Z,0.50
2022-09-05T13:59:16.391Z,1.30
2022-09-05T14:03:29.576Z,1.00
2022-09-05T14:05:55.602Z,1.30
2022-09-05T14:09:35.153Z,2.30
2022-09-05T14:12:06.239Z,1.50
2022-09-05T14:15:14.059Z,3.60
2022-09-05T14:18:23.261Z,2.60
2022-09-05T14:21:17.537Z,0.90
2022-09-05T14:24:28.151Z,2.30
2022-09-05T14:27:31.820Z,0.90
2022-09-05T14:32:07.929Z,2.00
2022-09-05T14:37:38.868Z,3.30
2022-09-05T14:37:44.363Z,0.90
2022-09-05T14:40:06.730Z,1.10
2022-09-05T14:43:17.342Z,3.30
2022-09-05T14:46:32.750Z,3.00
2022-09-05T14:49:29.588Z,2.60
2022-09-05T14:51:58.483Z,1.10
2022-09-05T15:02:46.101Z,2.20
2022-09-05T15:02:48.566Z,1.10
2022-09-05T15:03:15.473Z,1.30
2022-09-05T15:05:50.505Z,1.60
2022-09-05T15:10:09.123Z,2.50
2022-09-05T15:12:21.983Z,5.10
2022-09-05T15:14:13.275Z,1.00
2022-09-05T15:17:05.424Z,2.30
2022-09-05T15:20:06.724Z,1.70
2022-09-05T15:22:43.237Z,3.80
2022-09-05T15:25:19.274Z,0.80
2022-09-05T15:27:49.799Z,1.00
2022-09-05T15:30:22.770Z,0.70
2022-09-05T15:33:19.148Z,3.80
2022-09-05T15:35:55.288Z,1.60
2022-09-05T15:38:31.342Z,5.40
2022-09-05T15:41:17.462Z,2.00
2022-09-05T15:43:51.639Z,6.00
2022-09-05T15:46:46.631Z,1.50
2022-09-05T15:49:33.178Z,0.50
2022-09-05T15:52:17.716Z,2.00
2022-09-05T15:54:50.537Z,2.50
2022-09-05T15:57:27.948Z,2.90
2022-09-05T16:00:06.335Z,2.20
2022-09-05T16:02:39.233Z,4.70
2022-09-05T16:10:27.108Z,3.10
2022-09-05T16:10:38.969Z,2.10
2022-09-05T16:12:05.193Z,2.50
2022-09-05T16:14:24.139Z,0.40
2022-09-05T16:23:13.325Z,1.80
2022-09-05T16:23:28.091Z,3.40
2022-09-05T16:23:42.055Z,0.90
2022-09-05T16:26:25.712Z,2.20
2022-09-05T16:29:26.436Z,3.30
2022-09-05T16:32:03.107Z,0.70
2022-09-05T16:34:54.976Z,1.20
2022-09-05T16:37:23.087Z,4.70
2022-09-05T16:40:21.859Z,1.70
2022-09-05T16:43:07.408Z,2.70
2022-09-05T16:45:52.543Z,1.70
2022-09-05T16:48:26.424Z,2.70
2022-09-05T16:51:35.742Z,3.40
2022-09-05T16:54:36.398Z,1.70
2022-09-05T16:57:09.283Z,3.00
2022-09-05T16:59:55.467Z,3.50
2022-09-05T17:02:44.166Z,7.60
2022-09-05T17:05:24.960Z,3.90
2022-09-05T17:08:03.155Z,2.90
2022-09-05T17:10:43.230Z,2.00
2022-09-05T17:13:34.261Z,1.20
2022-09-05T17:16:04.443Z,4.20
2022-09-05T17:18:38.060Z,3.40
2022-09-05T17:21:11.491Z,5.10
2022-09-05T17:29:20.603Z,3.80
2022-09-05T17:29:30.408Z,2.60
2022-09-05T17:31:23.390Z,6.50
2022-09-05T17:32:34.335Z,3.00
2022-09-05T17:35:17.779Z,5.00
2022-09-05T17:37:53.453Z,4.50
2022-09-05T17:41:06.519Z,2.50
2022-09-05T17:43:41.365Z,10.50
2022-09-05T17:46:12.309Z,2.90
2022-09-05T17:48:46.530Z,1.60
2022-09-05T17:51:26.905Z,3.90
2022-09-05T17:54:03.320Z,5.80
2022-09-05T17:56:40.274Z,13.20
2022-09-05T17:59:14.285Z,12.00
2022-09-05T18:02:02.435Z,14.30
2022-09-05T18:04:45.144Z,15.20
2022-09-05T18:07:25.814Z,11.00
2022-09-05T18:10:15.596Z,11.70
2022-09-05T18:13:31.835Z,10.70
2022-09-05T18:16:11.327Z,8.50
2022-09-05T18:19:32.159Z,7.50
2022-09-05T18:21:49.769Z,4.40
2022-09-05T18:24:48.651Z,8.00
2022-09-05T18:28:03.612Z,11.30
2022-09-05T18:30:28.574Z,13.00
2022-09-05T18:33:54.093Z,9.10
2022-09-05T18:35:55.614Z,12.50
2022-09-05T18:38:50.939Z,9.20
2022-09-05T18:41:28.646Z,9.30
2022-09-05T18:44:13.152Z,7.60
2022-09-05T18:46:53.529Z,4.80
2022-09-05T18:50:23.898Z,4.50
2022-09-05T18:52:24.158Z,7.20
2022-09-05T18:56:09.290Z,6.90
2022-09-05T18:58:13.513Z,4.10
2022-09-05T19:00:46.913Z,5.40
2022-09-05T19:03:34.803Z,5.70
2022-09-05T19:06:35.799Z,5.30
2022-09-05T19:09:04.880Z,5.80
2022-09-05T19:11:53.470Z,7.00
2022-09-05T19:14:35.295Z,7.30
2022-09-05T19:17:10.344Z,6.10
2022-09-05T19:20:31.401Z,7.80
2022-09-05T19:23:09.899Z,6.00
2022-09-05T19:25:44.153Z,9.00
2022-09-05T19:36:15.729Z,6.20
2022-09-05T19:37:02.462Z,3.70
2022-09-05T19:37:06.266Z,4.10
2022-09-05T19:37:29.363Z,6.20
2022-09-05T19:47:25.216Z,6.20
2022-09-05T19:47:33.801Z,6.50
2022-09-05T19:47:47.234Z,5.20
2022-09-05T19:48:35.242Z,4.90
2022-09-05T19:51:17.133Z,4.00
2022-09-05T19:54:04.889Z,5.40
2022-09-05T19:56:37.823Z,9.90
2022-09-05T19:59:27.205Z,6.50
2022-09-05T20:02:04.897Z,7.10
2022-09-05T20:04:54.866Z,4.70
2022-09-05T20:07:28.875Z,6.90
2022-09-05T20:09:59.276Z,7.10
2022-09-05T20:12:36.881Z,6.70
2022-09-05T20:15:25.817Z,6.00
2022-09-05T20:18:41.116Z,3.20
2022-09-05T20:21:09.488Z,4.20
2022-09-05T20:23:49.608Z,5.00
2022-09-05T20:26:24.855Z,6.70
2022-09-05T20:29:02.766Z,4.70
2022-09-05T20:31:47.407Z,4.20
2022-09-05T20:35:50.221Z,4.20
2022-09-05T20:43:15.137Z,5.20
2022-09-05T20:43:23.027Z,5.20
2022-09-05T20:43:35.019Z,3.60
2022-09-05T20:47:24.707Z,4.60
2022-09-05T20:54:13.918Z,5.80
2022-09-05T20:54:16.970Z,4.80
2022-09-05T20:54:42.464Z,7.30
2022-09-05T20:57:18.259Z,4.40
2022-09-05T20:59:47.449Z,3.60
2022-09-05T21:02:28.657Z,3.70
2022-09-05T21:05:20.846Z,4.10
2022-09-05T21:08:07.060Z,3.70
2022-09-05T21:10:55.538Z,4.40
2022-09-05T21:13:35.537Z,4.40
2022-09-05T21:16:15.960Z,4.00
2022-09-05T21:18:45.059Z,4.20
2022-09-05T21:21:28.535Z,5.20
2022-09-05T21:24:16.291Z,3.60
2022-09-05T21:26:48.955Z,5.40
2022-09-05T21:29:32.329Z,4.70
2022-09-05T21:32:10.288Z,4.00
2022-09-05T21:34:47.708Z,4.60
2022-09-05T21:37:17.865Z,3.40
2022-09-05T21:39:59.846Z,7.00
2022-09-05T21:45:56.276Z,8.10
2022-09-05T21:47:44.677Z,4.40
2022-09-05T21:48:15.652Z,4.60
2022-09-05T21:50:50.275Z,5.80
2022-09-05T21:57:12.855Z,6.40
2022-09-05T21:59:19.802Z,3.80
2022-09-05T21:59:38.872Z,5.30
2022-09-05T22:02:17.081Z,4.20
2022-09-05T22:04:47.441Z,4.70
2022-09-05T22:07:31.850Z,6.00
2022-09-05T22:10:07.037Z,4.60
2022-09-05T22:12:37.155Z,3.80
2022-09-05T22:15:27.529Z,4.90
2022-09-05T22:18:16.668Z,5.30
2022-09-05T22:21:32.080Z,5.90
2022-09-05T22:23:47.105Z,4.10
2022-09-05T22:26:18.066Z,7.20
2022-09-05T22:28:52.203Z,6.10
2022-09-05T22:31:22.008Z,5.50
2022-09-05T22:33:51.413Z,4.70
2022-09-05T22:36:20.165Z,4.90
2022-09-05T22:38:48.399Z,3.80
2022-09-05T22:41:17.114Z,3.80
2022-09-05T22:43:46.530Z,2.90
2022-09-05T22:46:15.223Z,3.50
2022-09-05T22:48:43.789Z,4.80
2022-09-05T22:51:12.198Z,3.80
2022-09-05T22:53:40.315Z,3.70
2022-09-05T22:56:09.774Z,4.50
2022-09-05T22:58:40.485Z,5.00
2022-09-05T23:01:09.702Z,4.90
2022-09-05T23:03:38.338Z,6.90
2022-09-05T23:06:09.371Z,5.30
2022-09-05T23:08:37.435Z,4.80
2022-09-05T23:11:11.438Z,6.80
2022-09-05T23:13:39.705Z,4.50
2022-09-05T23:16:09.077Z,4.20
2022-09-05T23:18:37.579Z,3.70
2022-09-05T23:21:11.810Z,5.60
2022-09-05T23:23:41.567Z,2.70
2022-09-05T23:26:13.412Z,4.30
2022-09-05T23:28:43.664Z,4.50
2022-09-05T23:31:12.993Z,3.40
2022-09-05T23:33:42.095Z,4.20
2022-09-05T23:36:14.012Z,3.10
2022-09-05T23:38:43.679Z,5.80
2022-09-05T23:41:14.424Z,6.60
2022-09-05T23:43:43.110Z,3.70
2022-09-05T23:46:11.469Z,4.50
2022-09-05T23:48:39.962Z,2.90
2022-09-05T23:51:10.831Z,4.50
2022-09-05T23:53:39.337Z,2.60
2022-09-05T23:56:09.775Z,4.00
2022-09-05T23:58:39.014Z,4.90
